Time;durP1;ratioP1;P1;durP2;ratioP2;P2;SDS_P1;SDS_P2;PMS_P1;PMS_P2;Temp;Humidity;BMP_temperature;BMP_pressure;BME280_temperature;BME280_humidity;BME280_pressure;Samples;Min_cycle;Max_cycle;Signal;HPM_P1;HPM_P2
2022/03/02 00:03:59;;;;;;;42.38;28.75;;;;;;;3.51;98.88;101008.50;10291721;28;20375;-76
2022/03/02 00:09:01;;;;;;;46.85;29.95;;;;;;;3.27;98.28;100958.53;10291158;28;20105;-77
2022/03/02 00:14:03;;;;;;;44.78;29.85;;;;;;;3.64;98.64;101012.78;10306282;28;20058;-76
2022/03/02 00:19:04;;;;;;;48.65;30.92;;;;;;;3.67;98.29;101015.19;10290827;28;20031;-76
2022/03/02 00:24:05;;;;;;;55.10;33.30;;;;;;;3.75;98.31;101021.72;10291401;28;20039;-76
2022/03/02 00:29:06;;;;;;;52.28;34.65;;;;;;;3.00;98.26;100867.59;10290908;28;20035;-76
2022/03/02 00:34:07;;;;;;;68.90;37.08;;;;;;;3.36;97.66;100931.63;10291780;28;20031;-77
2022/03/02 00:39:09;;;;;;;50.67;35.80;;;;;;;3.80;99.02;101022.22;10305436;28;20035;-76
2022/03/02 00:44:13;;;;;;;61.08;39.17;;;;;;;3.80;98.00;101027.47;10291373;28;20057;-76
2022/03/02 00:49:15;;;;;;;56.50;35.95;;;;;;;3.64;98.37;101004.91;10290576;28;20398;-76
2022/03/02 00:54:16;;;;;;;62.53;40.55;;;;;;;3.72;98.22;101025.41;10290271;28;20041;-76
2022/03/02 00:59:17;;;;;;;65.60;40.45;;;;;;;3.75;98.46;101016.47;10291234;28;20041;-77
2022/03/02 01:04:19;;;;;;;56.90;37.95;;;;;;;3.53;98.29;100985.59;10290660;28;20366;-76
2022/03/02 01:09:20;;;;;;;63.42;40.45;;;;;;;3.37;98.81;100973.53;10294643;28;20047;-77
2022/03/02 01:14:22;;;;;;;64.35;39.28;;;;;;;3.74;98.29;101020.91;10297580;28;20035;-76
2022/03/02 01:19:23;;;;;;;55.85;34.25;;;;;;;3.77;97.77;101019.81;10297964;28;20038;-77
2022/03/02 01:24:24;;;;;;;53.72;32.92;;;;;;;2.32;98.02;100791.84;10328052;28;20057;-77
2022/03/02 01:29:26;;;;;;;54.70;33.22;;;;;;;3.66;98.75;101029.31;10337266;28;20045;-77
2022/03/02 01:34:27;;;;;;;55.55;33.47;;;;;;;2.78;98.66;100896.25;10335658;28;20089;-76
2022/03/02 01:39:29;;;;;;;55.20;33.50;;;;;;;3.60;98.55;101031.53;10336524;28;20098;-77
2022/03/02 01:44:30;;;;;;;50.05;31.75;;;;;;;3.58;99.05;101030.78;10337203;28;20082;-77
2022/03/02 01:49:32;;;;;;;55.25;32.42;;;;;;;3.49;99.40;101021.75;10337008;28;20073;-77
2022/03/02 01:54:32;;;;;;;59.58;35.85;;;;;;;2.81;98.88;100917.03;10335649;28;20042;-77
2022/03/02 01:59:33;;;;;;;57.67;36.22;;;;;;;3.53;99.22;101039.00;10336380;28;20027;-76
2022/03/02 02:04:35;;;;;;;66.15;36.88;;;;;;;3.56;99.29;101041.41;10337293;28;20494;-76
2022/03/02 02:09:36;;;;;;;55.72;33.22;;;;;;;3.49;98.67;101040.13;10335668;28;20427;-77
2022/03/02 02:14:37;;;;;;;69.03;40.22;;;;;;;3.63;99.17;101040.03;10335697;28;20121;-76
2022/03/02 02:19:37;;;;;;;66.00;38.38;;;;;;;3.67;98.60;101046.72;10334559;28;20039;-76
2022/03/02 02:24:38;;;;;;;70.07;37.65;;;;;;;3.59;98.98;101027.19;10335575;28;20037;-76
2022/03/02 02:29:41;;;;;;;80.82;41.85;;;;;;;3.63;98.21;101026.06;10334346;28;20065;-76
2022/03/02 02:34:41;;;;;;;72.03;40.92;;;;;;;3.03;98.20;100921.66;10334591;28;20096;-76
2022/03/02 02:39:42;;;;;;;75.47;41.05;;;;;;;3.75;98.55;101053.25;10318704;28;20030;-76
2022/03/02 02:44:43;;;;;;;73.45;40.70;;;;;;;3.82;98.96;101044.81;10298716;28;20057;-75
2022/03/02 02:49:44;;;;;;;84.65;42.17;;;;;;;3.80;98.74;101045.88;10305667;28;20126;-76
2022/03/02 02:54:47;;;;;;;78.55;42.85;;;;;;;3.82;99.12;101038.75;10293811;28;20189;-76
2022/03/02 02:59:48;;;;;;;73.15;40.60;;;;;;;3.78;98.54;101060.94;10293736;28;20544;-76
2022/03/02 03:04:49;;;;;;;79.35;41.85;;;;;;;2.74;99.02;100888.59;10292915;28;20034;-76
2022/03/02 03:09:50;;;;;;;70.72;41.88;;;;;;;3.65;98.46;101043.41;10304650;28;20034;-75
2022/03/02 03:14:51;;;;;;;76.13;42.33;;;;;;;3.48;98.85;101033.19;10327791;28;20037;-74
2022/03/02 03:19:52;;;;;;;80.68;42.78;;;;;;;2.92;99.26;100936.34;10333448;28;20177;-76
2022/03/02 03:24:53;;;;;;;81.90;40.95;;;;;;;2.82;99.43;100937.09;10332151;28;20387;-76
2022/03/02 03:29:54;;;;;;;90.43;44.80;;;;;;;3.23;99.76;101009.53;10332630;28;20092;-76
2022/03/02 03:34:55;;;;;;;85.35;41.42;;;;;;;2.98;99.63;100963.97;10331566;28;20034;-76
2022/03/02 03:39:56;;;;;;;92.35;47.63;;;;;;;3.31;99.51;101036.97;10333066;28;20038;-76
2022/03/02 03:44:57;;;;;;;82.03;45.03;;;;;;;2.44;99.93;100909.00;10333031;28;20141;-76
2022/03/02 03:49:58;;;;;;;78.50;42.42;;;;;;;2.92;100.00;101006.38;10332651;28;20482;-77
2022/03/02 03:54:59;;;;;;;75.65;43.72;;;;;;;2.95;99.93;101006.16;10331472;28;20042;-76
2022/03/02 04:00:00;;;;;;;78.07;43.70;;;;;;;3.00;99.82;101000.63;10332014;28;20034;-77
2022/03/02 04:05:01;;;;;;;63.97;37.53;;;;;;;3.19;99.27;101022.88;10331493;28;20039;-76
2022/03/02 04:10:04;;;;;;;63.13;35.55;;;;;;;3.12;99.41;101016.38;10332052;28;20031;-76
2022/03/02 04:15:06;;;;;;;69.60;41.88;;;;;;;2.16;99.25;100868.91;10329771;28;20129;-75
2022/03/02 04:20:08;;;;;;;73.75;40.53;;;;;;;3.10;99.48;101030.56;10288416;28;20117;-77
2022/03/02 04:25:10;;;;;;;72.13;40.58;;;;;;;3.15;99.72;101042.44;10291581;28;20502;-86
2022/03/02 04:30:13;;;;;;;73.72;42.22;;;;;;;2.46;99.72;100941.22;10291412;28;20031;-75
2022/03/02 04:35:14;;;;;;;78.90;41.55;;;;;;;3.14;100.00;101055.63;10290115;28;20069;-76
2022/03/02 04:40:16;;;;;;;73.05;40.60;;;;;;;3.19;99.54;101043.88;10289889;28;20034;-75
2022/03/02 04:45:17;;;;;;;73.40;44.03;;;;;;;2.88;99.34;101005.75;10298051;28;20041;-77
2022/03/02 04:50:19;;;;;;;72.22;42.78;;;;;;;3.29;100.00;101072.16;10298815;28;20039;-73
2022/03/02 04:55:20;;;;;;;73.47;43.80;;;;;;;3.01;100.00;101025.91;10317434;28;20042;-76
2022/03/02 05:00:26;;;;;;;73.53;44.30;;;;;;;3.47;99.22;101068.31;10303276;28;20042;-77
2022/03/02 05:05:29;;;;;;;69.40;40.35;;;;;;;3.19;98.67;101028.13;10298504;28;20034;-77
2022/03/02 05:10:30;;;;;;;78.47;44.13;;;;;;;2.79;99.19;100955.66;10297284;28;20135;-77
2022/03/02 05:15:31;;;;;;;70.30;42.10;;;;;;;3.44;98.17;101052.75;10296983;28;20061;-76
2022/03/02 05:20:32;;;;;;;76.90;43.50;;;;;;;3.05;99.17;100980.13;10297200;28;20082;-77
2022/03/02 05:25:33;;;;;;;73.38;43.55;;;;;;;3.81;98.79;101077.31;10296931;28;20034;-77
2022/03/02 05:30:34;;;;;;;82.47;46.28;;;;;;;3.79;98.24;101075.75;10297645;28;20081;-77
2022/03/02 05:35:34;;;;;;;75.15;44.92;;;;;;;3.73;98.42;101078.78;10296854;28;20431;-77
2022/03/02 05:40:35;;;;;;;74.15;43.55;;;;;;;3.65;98.28;101074.09;10294920;28;20372;-76
2022/03/02 05:45:37;;;;;;;73.47;42.47;;;;;;;3.82;97.98;101086.03;10296453;28;20041;-77
2022/03/02 05:50:38;;;;;;;91.88;48.20;;;;;;;3.80;98.25;101080.03;10296295;28;20113;-77
2022/03/02 05:55:38;;;;;;;75.28;41.33;;;;;;;3.59;98.08;101056.09;10295215;28;20125;-77
2022/03/02 06:00:41;;;;;;;86.47;49.42;;;;;;;3.49;98.26;101053.25;10296024;28;20045;-77
2022/03/02 06:05:42;;;;;;;76.10;44.42;;;;;;;3.77;97.94;101083.75;10295457;28;20058;-77
2022/03/02 06:10:43;;;;;;;86.63;47.42;;;;;;;3.83;98.36;101069.34;10295465;28;20066;-77
2022/03/02 06:15:44;;;;;;;73.97;42.90;;;;;;;3.84;98.05;101063.13;10294730;28;20047;-77
2022/03/02 06:20:51;;;;;;;75.85;44.00;;;;;;;3.77;98.40;101057.47;10295139;28;20386;-77
2022/03/02 06:25:52;;;;;;;74.97;43.45;;;;;;;3.81;97.60;101055.47;10295027;28;20042;-76
2022/03/02 06:30:53;;;;;;;77.93;44.47;;;;;;;4.01;97.85;101033.88;10294305;28;20034;-77
2022/03/02 06:35:53;;;;;;;76.70;44.80;;;;;;;3.59;97.80;100924.72;10294024;28;20371;-77
2022/03/02 06:40:58;;;;;;;69.50;43.45;;;;;;;4.55;97.17;101049.28;10294406;28;20054;-76
2022/03/02 06:46:25;;;;;;;76.60;42.95;;;;;;;4.63;96.88;101037.34;10293679;28;20031;-77
2022/03/02 06:51:29;;;;;;;78.32;43.35;;;;;;;3.79;97.12;100916.28;10293914;28;20049;-77
2022/03/02 06:56:39;;;;;;;70.15;41.75;;;;;;;4.22;97.29;100992.06;10293305;28;20031;-76
2022/03/02 07:01:43;;;;;;;73.53;41.95;;;;;;;3.42;97.36;100873.41;10293088;28;20165;-77
2022/03/02 07:06:46;;;;;;;71.40;41.03;;;;;;;4.41;97.56;101020.50;10293242;28;20041;-77
2022/03/02 07:11:47;;;;;;;70.65;44.20;;;;;;;3.76;97.57;100903.34;10293136;28;20463;-77
2022/03/02 07:16:48;;;;;;;65.32;42.40;;;;;;;3.39;97.78;100821.09;10293048;28;20062;-78
2022/03/02 07:21:50;;;;;;;66.97;39.60;;;;;;;4.54;97.51;101000.22;10293055;28;20066;-77
2022/03/02 07:26:53;;;;;;;63.78;39.15;;;;;;;4.45;97.83;100971.94;10292936;28;20035;-77
2022/03/02 07:31:57;;;;;;;70.30;41.00;;;;;;;4.18;97.35;100910.84;10292819;28;20125;-77
2022/03/02 07:36:59;;;;;;;61.15;37.63;;;;;;;4.55;97.36;100965.06;10291918;28;20136;-77
2022/03/02 07:42:01;;;;;;;63.33;39.38;;;;;;;3.82;97.44;100831.13;10292326;28;20043;-77
2022/03/02 07:47:02;;;;;;;61.22;34.90;;;;;;;3.89;97.71;100813.97;10291715;28;20050;-76
2022/03/02 07:52:05;;;;;;;55.83;35.95;;;;;;;4.48;97.92;100898.06;10292078;28;20502;-76
2022/03/02 07:57:09;;;;;;;48.72;27.92;;;;;;;4.70;97.83;100896.47;10292259;28;20118;-76
2022/03/02 08:02:11;;;;;;;58.03;35.43;;;;;;;4.54;98.45;100873.91;10291919;28;20074;-77
2022/03/02 08:07:12;;;;;;;52.00;32.75;;;;;;;4.92;98.04;100919.34;10291076;28;20070;-77
2022/03/02 08:12:13;;;;;;;58.22;32.58;;;;;;;4.71;98.82;100875.28;10291682;28;20042;-78
2022/03/02 08:17:15;;;;;;;50.45;31.10;;;;;;;4.92;99.09;100909.66;10294670;28;20035;-78
2022/03/02 08:22:20;;;;;;;55.65;33.17;;;;;;;4.79;99.37;100890.50;10299069;28;20061;-77
2022/03/02 08:27:21;;;;;;;56.92;33.75;;;;;;;4.64;99.39;100860.09;10299541;28;20035;-77
2022/03/02 08:32:24;;;;;;;50.42;33.30;;;;;;;4.73;99.34;100854.94;10298657;28;20034;-76
2022/03/02 08:37:26;;;;;;;52.78;33.17;;;;;;;4.71;99.72;100843.69;10297457;28;20070;-76
2022/03/02 08:42:27;;;;;;;52.70;31.25;;;;;;;5.03;98.81;100875.44;10297580;28;20038;-77
2022/03/02 08:47:28;;;;;;;49.00;30.85;;;;;;;4.87;99.40;100855.66;10299305;28;20471;-77
2022/03/02 08:52:31;;;;;;;48.92;29.92;;;;;;;4.92;99.20;100822.75;10298479;28;20038;-77
2022/03/02 08:57:36;;;;;;;52.42;31.25;;;;;;;4.40;98.84;100742.63;10298368;28;20027;-77
2022/03/02 09:02:55;;;;;;;54.33;33.35;;;;;;;5.27;98.75;100853.41;10298018;28;20117;-76
2022/03/02 09:07:57;;;;;;;45.20;26.40;;;;;;;5.09;98.74;100807.47;10297451;28;20035;-77
2022/03/02 09:13:02;;;;;;;44.95;28.35;;;;;;;4.97;98.96;100801.34;10297648;28;20090;-76
2022/03/02 09:18:03;;;;;;;42.13;23.67;;;;;;;5.18;98.47;100841.78;10298150;28;20066;-76
2022/03/02 09:23:04;;;;;;;35.67;23.83;;;;;;;4.90;99.55;100773.81;10297454;28;20066;-77
2022/03/02 09:28:10;;;;;;;38.75;25.48;;;;;;;4.56;99.41;100700.16;10295554;28;20502;-76
2022/03/02 09:33:14;;;;;;;41.80;25.58;;;;;;;4.57;98.71;100707.91;10297122;28;20125;-77
2022/03/02 09:38:20;;;;;;;41.40;26.00;;;;;;;5.07;98.76;100790.94;10296766;28;20031;-76
2022/03/02 09:43:25;;;;;;;47.92;28.73;;;;;;;4.93;99.15;100761.25;10296685;28;20545;-76
2022/03/02 09:48:31;;;;;;;40.85;25.77;;;;;;;5.38;98.80;100799.84;10296398;28;20034;-76
2022/03/02 09:53:35;;;;;;;48.28;30.05;;;;;;;5.27;98.61;100774.38;10296258;28;20379;-76
2022/03/02 09:58:39;;;;;;;44.45;26.33;;;;;;;4.84;97.92;100687.44;10295534;28;20034;-76
2022/03/02 10:03:48;;;;;;;47.90;30.23;;;;;;;5.68;98.79;100773.66;10295411;28;20039;-78
2022/03/02 10:08:51;;;;;;;39.63;23.73;;;;;;;5.63;97.57;100730.19;10295870;28;20374;-77
2022/03/02 10:13:56;;;;;;;32.00;19.55;;;;;;;5.13;94.87;100642.97;10295400;28;20128;-76
2022/03/02 10:18:59;;;;;;;40.15;25.17;;;;;;;5.93;96.61;100764.59;10294826;28;20035;-76
2022/03/02 10:24:02;;;;;;;36.08;21.45;;;;;;;5.82;96.85;100735.59;10294606;28;20047;-77
2022/03/02 10:29:12;;;;;;;45.15;26.17;;;;;;;5.66;96.18;100729.94;10294972;28;20039;-77
2022/03/02 10:34:33;;;;;;;43.70;25.38;;;;;;;5.84;96.24;100769.75;10294616;28;20459;-77
2022/03/02 10:39:52;;;;;;;40.92;24.92;;;;;;;5.79;96.41;100754.31;10293685;28;20062;-77
2022/03/02 10:45:10;;;;;;;33.70;20.63;;;;;;;5.08;95.61;100668.81;10294878;28;20058;-77
2022/03/02 10:50:13;;;;;;;37.47;22.73;;;;;;;5.02;96.23;100636.75;10293584;28;20042;-77
2022/03/02 10:55:14;;;;;;;34.40;20.38;;;;;;;4.98;96.81;100622.19;10293353;28;20035;-77
2022/03/02 11:00:18;;;;;;;36.78;23.52;;;;;;;5.42;97.39;100712.53;10293999;28;20030;-77
2022/03/02 11:05:19;;;;;;;32.85;20.70;;;;;;;4.97;97.39;100635.50;10292838;28;20062;-77
2022/03/02 11:10:22;;;;;;;30.63;17.73;;;;;;;5.56;97.96;100727.19;10292810;28;20073;-77
2022/03/02 11:15:23;;;;;;;38.47;24.85;;;;;;;5.11;99.04;100677.31;10293214;28;20069;-77
2022/03/02 11:20:28;;;;;;;33.38;19.23;;;;;;;5.48;98.47;100703.31;10293965;28;20470;-77
2022/03/02 11:25:48;;;;;;;38.72;24.30;;;;;;;5.37;99.66;100706.81;10292987;28;20034;-76
2022/03/02 11:31:00;;;;;;;37.30;23.55;;;;;;;5.23;99.84;100646.50;10292896;28;20089;-76
2022/03/02 11:36:12;;;;;;;33.22;20.60;;;;;;;4.27;100.00;100507.81;10292633;28;20030;-77
2022/03/02 11:41:13;;;;;;;45.17;26.92;;;;;;;5.20;100.00;100696.81;10291116;28;20055;-76
2022/03/02 11:46:16;;;;;;;34.70;22.45;;;;;;;5.21;100.00;100688.78;10292318;28;20464;-77
2022/03/02 11:51:23;;;;;;;36.97;20.88;;;;;;;5.17;100.00;100663.63;10291897;28;20440;-77
2022/03/02 11:56:25;;;;;;;35.00;22.23;;;;;;;5.04;100.00;100689.31;10291496;28;20030;-77
2022/03/02 12:01:45;;;;;;;28.90;18.30;;;;;;;4.18;100.00;100567.22;10292800;28;20449;-77
2022/03/02 12:06:51;;;;;;;34.13;21.05;;;;;;;4.99;100.00;100700.19;10292077;28;20035;-76
2022/03/02 12:12:04;;;;;;;32.03;20.92;;;;;;;4.05;100.00;100556.84;10291463;28;20118;-77
2022/03/02 12:17:14;;;;;;;36.73;21.47;;;;;;;4.88;100.00;100687.09;10291497;28;20041;-77
2022/03/02 12:22:17;;;;;;;29.83;19.02;;;;;;;4.61;100.00;100644.53;10293656;28;20061;-77
2022/03/02 12:27:19;;;;;;;31.88;19.92;;;;;;;4.83;100.00;100681.34;10305194;28;20062;-76
2022/03/02 12:32:21;;;;;;;34.00;19.40;;;;;;;4.78;100.00;100665.06;10312437;28;20467;-76
2022/03/02 12:37:22;;;;;;;27.73;17.77;;;;;;;4.71;100.00;100640.22;10326509;28;20073;-76
2022/03/02 12:42:23;;;;;;;29.52;18.52;;;;;;;4.28;100.00;100547.16;10322612;28;20046;-76
2022/03/02 12:47:29;;;;;;;36.88;19.70;;;;;;;4.39;100.00;100546.28;10318754;28;20034;-76
2022/03/02 12:52:30;;;;;;;36.72;20.98;;;;;;;4.90;100.00;100608.81;10325407;28;20053;-76
2022/03/02 12:57:33;;;;;;;29.27;17.08;;;;;;;4.73;100.00;100614.63;10323617;28;20486;-76
2022/03/02 13:02:35;;;;;;;33.58;17.42;;;;;;;4.95;100.00;100650.56;10296623;28;20493;-76
2022/03/02 13:07:36;;;;;;;28.58;18.45;;;;;;;5.12;100.00;100657.09;10297885;28;20034;-76
2022/03/02 13:12:39;;;;;;;31.42;20.13;;;;;;;4.86;100.00;100653.94;10297255;28;20391;-76
2022/03/02 13:17:40;;;;;;;33.70;21.27;;;;;;;4.46;100.00;100589.56;10297638;28;20051;-76
2022/03/02 13:22:40;;;;;;;31.10;20.52;;;;;;;4.83;100.00;100681.34;10307490;28;20035;-76
2022/03/02 13:28:09;;;;;;;38.35;23.98;;;;;;;4.83;100.00;100686.59;10298227;28;20077;-76
2022/03/02 13:33:10;;;;;;;45.88;26.73;;;;;;;4.74;100.00;100676.81;10297386;28;20382;-76
2022/03/02 13:38:12;;;;;;;53.15;28.55;;;;;;;4.85;100.00;100686.50;10297774;28;20031;-76
2022/03/02 13:43:12;;;;;;;57.20;30.88;;;;;;;4.80;100.00;100684.22;10295895;28;20155;-76
2022/03/02 13:48:28;;;;;;;55.00;32.80;;;;;;;4.75;100.00;100658.25;10296004;28;20110;-76
2022/03/02 13:53:41;;;;;;;51.20;30.40;;;;;;;4.05;100.00;100533.19;10295792;28;20046;-76
2022/03/02 13:58:45;;;;;;;52.58;27.70;;;;;;;4.40;100.00;100587.41;10295637;28;20487;-76
2022/03/02 14:04:02;;;;;;;48.37;27.33;;;;;;;4.80;100.00;100642.09;10295597;28;20043;-76
2022/03/02 14:09:05;;;;;;;48.45;27.17;;;;;;;4.68;100.00;100612.34;10297677;28;20494;-76
2022/03/02 14:14:16;;;;;;;44.50;27.02;;;;;;;4.68;100.00;100616.78;10325056;28;20034;-76
2022/03/02 14:19:17;;;;;;;43.38;27.33;;;;;;;4.55;100.00;100607.25;10333703;28;20042;-76
2022/03/02 14:24:19;;;;;;;51.15;27.98;;;;;;;4.32;100.00;100584.56;10326567;28;20053;-76
2022/03/02 14:29:20;;;;;;;52.00;27.23;;;;;;;3.77;100.00;100496.88;10320829;28;20053;-76
2022/03/02 14:34:21;;;;;;;50.35;27.42;;;;;;;3.62;100.00;100478.78;10334393;28;20034;-76
2022/03/02 14:39:22;;;;;;;48.15;27.45;;;;;;;4.39;100.00;100590.16;10329425;28;20030;-76
2022/03/02 14:44:23;;;;;;;50.00;27.92;;;;;;;4.19;100.00;100547.88;10370645;28;20053;-76
2022/03/02 14:49:24;;;;;;;48.78;25.88;;;;;;;4.08;100.00;100518.97;10348193;28;20046;-73
2022/03/02 14:54:24;;;;;;;50.47;28.30;;;;;;;4.27;100.00;100539.38;10296591;28;20495;-75
2022/03/02 14:59:25;;;;;;;59.45;30.30;;;;;;;4.29;100.00;100553.25;10293334;28;20035;-78
2022/03/02 15:04:28;;;;;;;49.10;29.13;;;;;;;4.43;100.00;100570.53;10304074;28;20369;-74
2022/03/02 15:09:29;;;;;;;51.22;28.58;;;;;;;4.44;100.00;100535.41;10293521;28;20039;-78
2022/03/02 15:19:57;;;;;;;51.53;30.00;;;;;;;4.76;100.00;100559.09;10292450;28;20077;-76
2022/03/02 15:25:00;;;;;;;46.88;27.75;;;;;;;4.58;100.00;100519.34;10292208;28;20064;-76
2022/03/02 15:30:13;;;;;;;76.43;39.47;;;;;;;4.89;100.00;100567.66;10292161;28;20034;-76
2022/03/02 15:35:24;;;;;;;49.58;30.05;;;;;;;4.84;100.00;100546.13;10291829;28;20038;-76
2022/03/02 15:40:31;;;;;;;55.38;29.85;;;;;;;4.91;100.00;100573.63;10292371;28;20041;-76
2022/03/02 15:45:35;;;;;;;79.97;40.00;;;;;;;5.07;100.00;100575.00;10292641;28;20042;-76
2022/03/02 15:50:38;;;;;;;56.23;32.07;;;;;;;4.55;100.00;100465.16;10292749;28;20041;-76
2022/03/02 15:55:44;;;;;;;106.38;49.70;;;;;;;4.37;100.00;100436.88;10291620;28;20487;-76
2022/03/02 16:00:47;;;;;;;53.05;30.33;;;;;;;5.21;100.00;100557.09;10291884;28;20119;-76
2022/03/02 16:05:57;;;;;;;49.65;30.95;;;;;;;5.26;100.00;100561.97;10290830;28;20031;-76
2022/03/02 16:11:19;;;;;;;50.50;30.83;;;;;;;5.31;100.00;100551.88;10314117;28;20034;-75
2022/03/02 16:16:20;;;;;;;48.78;30.30;;;;;;;5.19;100.00;100540.59;10330341;28;20082;-75
2022/03/02 16:21:22;;;;;;;47.85;28.00;;;;;;;5.25;100.00;100526.91;10319113;28;20058;-75
2022/03/02 16:26:33;;;;;;;48.72;29.08;;;;;;;5.28;100.00;100517.06;10308016;28;20065;-75
2022/03/02 16:31:34;;;;;;;85.43;38.58;;;;;;;5.32;100.00;100526.38;10331954;28;20038;-75
2022/03/02 16:36:36;;;;;;;56.22;31.77;;;;;;;5.35;100.00;100519.03;10332366;28;20049;-75
2022/03/02 16:41:37;;;;;;;51.78;29.70;;;;;;;4.57;100.00;100380.84;10337537;28;20042;-74
2022/03/02 16:46:41;;;;;;;57.25;33.25;;;;;;;4.56;100.00;100366.84;10338626;28;20030;-74
2022/03/02 16:51:42;;;;;;;56.45;33.42;;;;;;;5.30;100.00;100483.53;10338374;28;20038;-74
2022/03/02 16:56:43;;;;;;;58.05;31.17;;;;;;;5.18;100.00;100477.53;10319386;28;20086;-75
2022/03/02 17:01:44;;;;;;;58.72;31.02;;;;;;;5.14;100.00;100482.19;10297741;28;20038;-74
2022/03/02 17:06:48;;;;;;;55.95;31.17;;;;;;;4.91;100.00;100420.13;10307999;28;20031;-76
2022/03/02 17:11:50;;;;;;;50.85;30.30;;;;;;;5.11;100.00;100478.97;10333529;28;20038;-75
2022/03/02 17:16:51;;;;;;;48.75;30.42;;;;;;;4.79;100.00;100441.25;10336874;28;20475;-75
2022/03/02 17:21:52;;;;;;;51.58;31.63;;;;;;;4.75;100.00;100423.19;10335511;28;20034;-75
2022/03/02 17:26:53;;;;;;;54.35;30.80;;;;;;;4.27;100.00;100329.00;10326807;28;20037;-75
2022/03/02 17:31:54;;;;;;;53.92;30.23;;;;;;;4.95;100.00;100417.09;10310364;28;20053;-75
2022/03/02 17:36:56;;;;;;;53.00;30.80;;;;;;;4.62;100.00;100368.13;10312678;28;20033;-75
2022/03/02 17:41:58;;;;;;;49.05;29.33;;;;;;;5.15;100.00;100433.00;10330707;28;20039;-76
2022/03/02 17:47:00;;;;;;;47.28;28.45;;;;;;;5.11;100.00;100421.06;10335531;28;20034;-76
2022/03/02 17:52:02;;;;;;;47.63;30.17;;;;;;;4.43;100.00;100329.41;10333514;28;20027;-76
2022/03/02 17:57:03;;;;;;;48.75;29.13;;;;;;;5.08;100.00;100410.78;10332014;28;20034;-75
2022/03/02 18:02:05;;;;;;;59.30;35.92;;;;;;;4.16;100.00;100237.03;10329258;28;20046;-75
2022/03/02 18:07:08;;;;;;;56.17;32.80;;;;;;;5.11;100.00;100377.13;10327522;28;20492;-75
2022/03/02 18:12:10;;;;;;;54.23;34.20;;;;;;;4.56;100.00;100284.47;10332001;28;20093;-74
2022/03/02 18:17:11;;;;;;;58.60;36.47;;;;;;;5.04;100.00;100371.53;10330924;28;20037;-75
2022/03/02 18:22:13;;;;;;;50.67;30.40;;;;;;;5.07;100.00;100378.34;10328596;28;20037;-75
2022/03/02 18:27:15;;;;;;;46.78;30.70;;;;;;;5.10;100.00;100369.38;10307084;28;20092;-74
2022/03/02 18:32:17;;;;;;;56.80;29.90;;;;;;;4.30;100.00;100227.00;10321542;28;20426;-74
2022/03/02 18:37:18;;;;;;;46.25;29.98;;;;;;;5.13;100.00;100355.94;10307660;28;20360;-74
2022/03/02 18:42:19;;;;;;;47.65;29.13;;;;;;;4.88;100.00;100315.94;10299843;28;20043;-75
2022/03/02 18:47:20;;;;;;;49.00;28.80;;;;;;;4.89;100.00;100293.91;10325122;28;20038;-75
2022/03/02 18:52:21;;;;;;;51.70;34.83;;;;;;;4.27;100.00;100194.88;10304241;28;20046;-74
2022/03/02 18:57:22;;;;;;;48.95;29.35;;;;;;;4.85;100.00;100276.72;10293239;28;20035;-73
2022/03/02 19:02:24;;;;;;;51.53;29.63;;;;;;;4.84;100.00;100269.75;10293881;28;20034;-74
2022/03/02 19:07:26;;;;;;;74.93;33.47;;;;;;;4.80;100.00;100276.28;10293572;28;20082;-74
2022/03/02 19:12:27;;;;;;;90.45;42.17;;;;;;;4.75;100.00;100257.41;10293386;28;20038;-74
2022/03/02 19:17:28;;;;;;;60.22;29.20;;;;;;;4.97;100.00;100288.81;10293388;28;20063;-74
2022/03/02 19:22:33;;;;;;;52.45;30.25;;;;;;;4.96;100.00;100284.50;10292588;28;20030;-74
2022/03/02 19:27:35;;;;;;;94.78;31.55;;;;;;;5.03;100.00;100269.00;10308265;28;20045;-74
2022/03/02 19:32:38;;;;;;;60.35;33.20;;;;;;;5.06;100.00;100262.66;10300729;28;20034;-74
2022/03/02 19:37:40;;;;;;;76.53;31.88;;;;;;;4.90;100.00;100208.69;10326159;28;20394;-74
2022/03/02 19:42:42;;;;;;;67.38;31.98;;;;;;;4.97;100.00;100204.56;10332655;28;20426;-74
2022/03/02 19:47:55;;;;;;;75.53;30.83;;;;;;;5.12;100.00;100235.78;10332266;28;20490;-74
2022/03/02 19:52:58;;;;;;;112.30;32.75;;;;;;;5.08;100.00;100226.47;10333142;28;20429;-74
2022/03/02 19:58:01;;;;;;;146.60;31.73;;;;;;;4.97;100.00;100195.84;10330504;28;20031;-74
2022/03/02 20:03:02;;;;;;;161.18;32.33;;;;;;;5.11;100.00;100199.88;10331520;28;20038;-74
2022/03/02 20:08:03;;;;;;;105.50;31.98;;;;;;;5.14;100.00;100192.53;10331834;28;20386;-74
2022/03/02 20:13:04;;;;;;;97.80;34.92;;;;;;;4.49;100.00;100067.63;10335259;28;20120;-75
2022/03/02 20:18:05;;;;;;;89.70;31.33;;;;;;;4.48;100.00;100055.44;10340356;28;20120;-76
2022/03/02 20:23:08;;;;;;;121.95;32.80;;;;;;;5.11;100.00;100173.53;10339944;28;20046;-74
2022/03/02 20:28:12;;;;;;;146.73;33.80;;;;;;;5.07;100.00;100153.72;10340309;28;20042;-74
2022/03/02 20:33:15;;;;;;;181.00;33.33;;;;;;;5.06;100.00;100121.31;10339513;28;20038;-74
2022/03/02 20:38:20;;;;;;;220.52;34.08;;;;;;;4.13;100.00;99954.22;10337409;28;20042;-74
2022/03/02 20:43:23;;;;;;;172.10;33.65;;;;;;;5.18;100.00;100122.84;10318895;28;20507;-74
2022/03/02 20:48:23;;;;;;;179.35;34.28;;;;;;;5.18;100.00;100101.75;10298247;28;20092;-74
2022/03/02 20:53:24;;;;;;;299.60;34.42;;;;;;;5.10;100.00;100079.72;10298617;28;20047;-76
2022/03/02 20:58:25;;;;;;;218.70;33.45;;;;;;;5.31;100.00;100114.63;10297807;28;20085;-74
2022/03/02 21:03:27;;;;;;;271.00;33.85;;;;;;;5.24;100.00;100103.00;10298516;28;20046;-74
2022/03/02 21:08:28;;;;;;;322.85;35.13;;;;;;;5.30;100.00;100105.09;10297438;28;20109;-75
2022/03/02 21:13:31;;;;;;;291.23;33.08;;;;;;;5.13;100.00;100066.28;10298545;28;20093;-74
2022/03/02 21:18:33;;;;;;;161.68;30.00;;;;;;;4.46;100.00;99954.81;10313500;28;20031;-74
2022/03/02 21:23:33;;;;;;;303.67;32.30;;;;;;;4.72;100.00;99986.63;10295736;28;20035;-73
2022/03/02 21:28:37;;;;;;;287.92;31.67;;;;;;;4.60;100.00;99943.03;10298090;28;20043;-75
2022/03/02 21:33:37;;;;;;;210.23;31.00;;;;;;;5.31;100.00;100067.22;10296463;28;20034;-74
2022/03/02 21:38:39;;;;;;;249.85;34.30;;;;;;;5.16;100.00;100011.53;10297145;28;20597;-74
2022/03/02 21:43:40;;;;;;;141.60;29.13;;;;;;;5.19;100.00;99989.34;10296651;28;20203;-74
2022/03/02 21:48:41;;;;;;;74.68;26.55;;;;;;;5.41;100.00;100004.00;10296653;28;20037;-75
2022/03/02 21:53:42;;;;;;;58.65;29.50;;;;;;;5.39;100.00;99975.16;10295847;28;20082;-75
2022/03/02 21:58:43;;;;;;;53.03;29.30;;;;;;;5.28;100.00;99956.91;10295755;28;20045;-75
2022/03/02 22:03:44;;;;;;;50.33;24.77;;;;;;;4.61;100.00;99837.66;10295473;28;20037;-75
2022/03/02 22:08:44;;;;;;;34.95;22.90;;;;;;;5.41;100.00;99967.94;10296092;28;20054;-75
2022/03/02 22:13:45;;;;;;;37.28;22.05;;;;;;;4.88;100.00;99871.13;10315132;28;20372;-74
2022/03/02 22:18:46;;;;;;;35.17;21.67;;;;;;;4.74;100.00;99858.41;10321914;28;20446;-75
2022/03/02 22:23:47;;;;;;;28.52;17.65;;;;;;;4.55;100.00;99801.41;10295965;28;20039;-75
2022/03/02 22:28:48;;;;;;;21.77;14.27;;;;;;;4.75;100.00;99839.00;10295314;28;20476;-76
2022/03/02 22:33:48;;;;;;;13.18;9.82;;;;;;;4.86;100.00;99861.69;10294211;28;20038;-75
2022/03/02 22:38:50;;;;;;;14.95;10.38;;;;;;;5.19;100.00;99921.72;10294442;28;20030;-75
2022/03/02 22:43:50;;;;;;;12.55;9.57;;;;;;;5.35;100.00;99936.06;10293995;28;20051;-76
2022/03/02 22:48:51;;;;;;;14.73;10.57;;;;;;;5.32;100.00;99937.19;10293551;28;20394;-74
2022/03/02 22:53:54;;;;;;;17.70;11.48;;;;;;;4.87;100.00;99851.00;10294400;28;20046;-75